createdAt,value
2019-05-10T00:00:51.893Z,5.63
2019-05-10T00:03:39.789Z,5.70
2019-05-10T00:06:27.855Z,6.10
2019-05-10T00:08:57.169Z,7.40
2019-05-10T00:11:34.800Z,6.73
2019-05-10T00:14:15.304Z,5.87
2019-05-10T00:16:46.119Z,6.77
2019-05-10T00:19:16.172Z,6.23
2019-05-10T00:21:46.203Z,6.13
2019-05-10T00:24:16.171Z,8.87
2019-05-10T00:26:46.223Z,6.97
2019-05-10T00:29:16.291Z,5.80
2019-05-10T00:31:46.354Z,5.57
2019-05-10T00:34:16.520Z,6.73
2019-05-10T00:36:46.487Z,7.47
2019-05-10T00:39:19.384Z,7.73
2019-05-10T00:41:48.188Z,8.37
2019-05-10T00:44:18.159Z,9.27
2019-05-10T00:46:48.206Z,6.50
2019-05-10T00:49:18.246Z,8.27
2019-05-10T00:51:48.225Z,8.53
2019-05-10T00:54:18.345Z,7.50
2019-05-10T00:56:48.341Z,7.73
2019-05-10T00:59:18.388Z,9.60
2019-05-10T01:01:48.398Z,8.47
2019-05-10T01:04:18.389Z,9.13
2019-05-10T01:06:48.606Z,8.33
2019-05-10T01:09:18.693Z,8.60
2019-05-10T01:11:48.674Z,8.80
2019-05-10T01:14:18.707Z,9.67
2019-05-10T01:16:48.718Z,9.23
2019-05-10T01:19:18.721Z,7.90
2019-05-10T01:21:48.700Z,9.00
2019-05-10T01:24:19.244Z,9.73
2019-05-10T01:26:49.276Z,10.67
2019-05-10T01:29:19.274Z,8.50
2019-05-10T01:31:49.282Z,10.17
2019-05-10T01:34:19.267Z,9.43
2019-05-10T01:36:49.269Z,10.27
2019-05-10T01:39:20.412Z,10.67
2019-05-10T01:41:52.273Z,11.20
2019-05-10T01:44:22.375Z,11.67
2019-05-10T01:46:52.372Z,13.17
2019-05-10T01:49:22.391Z,11.53
2019-05-10T01:51:52.365Z,13.30
2019-05-10T01:54:22.380Z,10.03
2019-05-10T01:56:52.355Z,12.70
2019-05-10T01:59:22.445Z,12.57
2019-05-10T02:01:52.424Z,12.80
2019-05-10T02:04:22.435Z,11.97
2019-05-10T02:06:52.431Z,12.33
2019-05-10T02:09:22.698Z,12.80
2019-05-10T02:11:53.485Z,13.73
2019-05-10T02:14:23.474Z,11.73
2019-05-10T02:16:53.542Z,12.13
2019-05-10T02:19:23.521Z,13.07
2019-05-10T02:21:53.501Z,13.33
2019-05-10T02:24:24.623Z,15.43
2019-05-10T02:26:54.586Z,13.30
2019-05-10T02:29:24.655Z,12.33
2019-05-10T02:31:54.639Z,12.70
2019-05-10T02:34:24.634Z,11.97
2019-05-10T02:36:54.696Z,13.30
2019-05-10T02:39:24.695Z,11.23
2019-05-10T02:41:54.747Z,12.30
2019-05-10T02:44:24.726Z,12.13
2019-05-10T02:46:54.820Z,13.03
2019-05-10T02:49:24.813Z,11.47
2019-05-10T02:51:54.901Z,10.70
2019-05-10T02:54:25.011Z,12.40
2019-05-10T02:56:56.263Z,12.07
2019-05-10T02:59:27.105Z,13.00
2019-05-10T03:01:57.681Z,11.40
2019-05-10T03:04:28.742Z,12.40
2019-05-10T03:07:06.944Z,12.13
2019-05-10T03:09:37.004Z,13.47
2019-05-10T03:12:19.019Z,12.43
2019-05-10T03:14:52.079Z,15.03
2019-05-10T03:17:22.222Z,13.17
2019-05-10T03:19:54.166Z,13.07
2019-05-10T03:22:25.923Z,14.70
2019-05-10T03:24:56.170Z,12.30
2019-05-10T03:27:26.172Z,13.30
2019-05-10T03:29:56.322Z,15.83
2019-05-10T03:32:26.313Z,14.10
2019-05-10T03:34:56.329Z,13.43
2019-05-10T03:37:27.061Z,15.30
2019-05-10T03:39:57.130Z,17.67
2019-05-10T03:42:27.162Z,15.07
2019-05-10T03:44:57.230Z,15.33
2019-05-10T03:47:27.230Z,15.57
2019-05-10T03:49:57.333Z,15.40
2019-05-10T03:52:27.319Z,16.57
2019-05-10T03:54:57.393Z,14.43
2019-05-10T03:57:27.378Z,16.47
2019-05-10T03:59:57.399Z,14.83
2019-05-10T04:02:27.473Z,16.37
2019-05-10T04:04:57.472Z,15.90
2019-05-10T04:07:27.547Z,18.83
2019-05-10T04:09:57.601Z,19.53
2019-05-10T04:12:27.599Z,16.10
2019-05-10T04:14:57.624Z,14.47
2019-05-10T04:17:27.674Z,15.10
2019-05-10T04:19:57.732Z,16.17
2019-05-10T04:22:27.815Z,14.73
2019-05-10T04:24:57.848Z,16.63
2019-05-10T04:27:32.348Z,14.57
2019-05-10T04:29:59.559Z,15.50
2019-05-10T04:32:29.554Z,16.60
2019-05-10T04:34:59.563Z,17.03
2019-05-10T04:37:29.590Z,20.93
2019-05-10T04:40:00.661Z,16.73
2019-05-10T04:42:30.756Z,19.40
2019-05-10T04:45:00.806Z,18.07
2019-05-10T04:47:30.845Z,16.87
2019-05-10T04:50:00.876Z,16.30
2019-05-10T04:52:32.052Z,17.67
2019-05-10T04:55:02.079Z,15.80
2019-05-10T04:57:47.965Z,14.30
2019-05-10T05:00:05.726Z,15.87
2019-05-10T05:02:35.734Z,15.43
2019-05-10T05:05:07.520Z,18.60
2019-05-10T05:07:37.553Z,16.30
2019-05-10T05:10:09.139Z,17.07
2019-05-10T05:12:39.182Z,18.30
2019-05-10T05:15:09.909Z,17.20
2019-05-10T05:17:39.925Z,18.40
2019-05-10T05:20:10.415Z,18.03
2019-05-10T05:22:40.403Z,18.83
2019-05-10T05:25:10.526Z,16.33
2019-05-10T05:27:40.620Z,18.60
2019-05-10T05:30:10.669Z,15.97
2019-05-10T05:32:44.614Z,15.40
2019-05-10T05:35:15.547Z,20.10
2019-05-10T05:37:45.442Z,16.23
2019-05-10T05:40:15.714Z,16.80
2019-05-10T05:42:45.721Z,16.93
2019-05-10T05:45:15.850Z,19.03
2019-05-10T05:47:45.865Z,18.53
2019-05-10T05:50:15.914Z,17.77
2019-05-10T05:52:45.929Z,19.07
2019-05-10T05:55:16.002Z,18.87
2019-05-10T05:57:48.398Z,16.97
2019-05-10T06:00:20.927Z,16.40
2019-05-10T06:02:50.939Z,17.97
2019-05-10T06:05:33.859Z,19.23
2019-05-10T06:07:54.255Z,13.77
2019-05-10T06:10:24.239Z,16.23
2019-05-10T06:12:54.229Z,16.43
2019-05-10T06:15:28.925Z,15.77
2019-05-10T06:17:57.579Z,16.53
2019-05-10T06:20:27.777Z,17.10
2019-05-10T06:23:06.581Z,18.20
2019-05-10T06:25:39.552Z,18.37
2019-05-10T06:28:01.186Z,17.40
2019-05-10T06:30:31.203Z,16.13
2019-05-10T06:33:11.859Z,18.57
2019-05-10T06:35:32.923Z,15.93
2019-05-10T06:38:02.945Z,17.70
2019-05-10T06:40:37.539Z,15.83
2019-05-10T06:43:07.056Z,17.27
2019-05-10T06:45:36.454Z,18.40
2019-05-10T06:48:06.441Z,18.80
2019-05-10T06:50:36.454Z,18.27
2019-05-10T06:53:10.736Z,17.03
2019-05-10T06:55:38.165Z,17.20
2019-05-10T06:58:08.152Z,18.07
2019-05-10T07:00:44.494Z,15.60
2019-05-10T07:03:09.851Z,18.40
2019-05-10T07:05:39.893Z,16.50
2019-05-10T07:08:19.721Z,19.60
2019-05-10T07:10:42.156Z,18.17
2019-05-10T07:13:12.365Z,16.10
2019-05-10T07:15:44.765Z,16.47
2019-05-10T07:18:16.783Z,19.33
2019-05-10T07:20:45.869Z,17.37
2019-05-10T07:23:15.864Z,17.63
2019-05-10T07:25:46.714Z,19.70
2019-05-10T07:28:17.807Z,20.07
2019-05-10T07:30:49.049Z,17.73
2019-05-10T07:33:19.065Z,18.53
2019-05-10T07:35:49.123Z,17.67
2019-05-10T07:38:23.454Z,16.73
2019-05-10T07:40:50.820Z,17.90
2019-05-10T07:43:26.633Z,20.40
2019-05-10T07:45:58.658Z,18.13
2019-05-10T07:48:24.325Z,18.63
2019-05-10T07:50:54.321Z,16.40
2019-05-10T07:53:25.230Z,16.77
2019-05-10T07:55:59.990Z,15.83
2019-05-10T07:58:27.049Z,15.67
2019-05-10T08:00:57.178Z,16.33
2019-05-10T08:03:29.644Z,14.97
2019-05-10T08:06:01.889Z,16.43
2019-05-10T08:08:30.585Z,16.03
2019-05-10T08:11:00.877Z,15.87
2019-05-10T08:13:30.899Z,15.90
2019-05-10T08:16:05.505Z,16.27
2019-05-10T08:18:32.642Z,13.47
2019-05-10T08:21:17.992Z,14.83
2019-05-10T08:23:34.321Z,15.63
2019-05-10T08:26:04.720Z,15.73
2019-05-10T08:28:37.923Z,16.40
2019-05-10T08:31:07.562Z,17.67
2019-05-10T08:33:37.629Z,15.90
2019-05-10T08:36:07.634Z,13.50
2019-05-10T08:38:39.829Z,19.27
2019-05-10T08:41:16.500Z,15.17
2019-05-10T08:43:43.005Z,15.97
2019-05-10T08:46:12.759Z,17.03
2019-05-10T08:48:50.256Z,14.50
2019-05-10T08:51:14.516Z,17.00
2019-05-10T08:53:47.096Z,17.63
2019-05-10T08:56:20.916Z,19.13
2019-05-10T08:58:48.013Z,16.40
2019-05-10T09:01:26.595Z,16.47
2019-05-10T09:03:55.066Z,13.57
2019-05-10T09:06:22.129Z,17.53
2019-05-10T09:09:01.396Z,15.43
2019-05-10T09:11:23.850Z,17.60
2019-05-10T09:13:57.484Z,13.80
2019-05-10T09:16:29.235Z,16.30
2019-05-10T09:18:57.444Z,16.53
2019-05-10T09:21:27.442Z,15.47
2019-05-10T09:24:01.517Z,14.43
2019-05-10T09:26:29.224Z,14.30
2019-05-10T09:29:01.476Z,17.30
2019-05-10T09:31:32.656Z,18.20
2019-05-10T09:34:03.941Z,15.93
2019-05-10T09:36:36.213Z,15.73
2019-05-10T09:39:09.210Z,15.20
2019-05-10T09:41:38.584Z,15.53
2019-05-10T09:44:08.644Z,21.37
2019-05-10T09:46:38.648Z,20.83
2019-05-10T09:49:15.566Z,15.13
2019-05-10T09:51:42.262Z,12.93
2019-05-10T09:54:12.556Z,13.70
2019-05-10T09:56:44.966Z,27.63
2019-05-10T09:59:14.342Z,14.93
2019-05-10T10:01:44.343Z,22.83
2019-05-10T10:04:14.411Z,18.00
2019-05-10T10:06:48.231Z,15.23
2019-05-10T10:09:17.178Z,14.73
2019-05-10T10:11:57.376Z,17.43
2019-05-10T10:14:19.149Z,17.70
2019-05-10T10:16:58.344Z,15.13
2019-05-10T10:19:24.363Z,20.30
2019-05-10T10:21:52.545Z,17.53
2019-05-10T10:24:22.532Z,17.07
2019-05-10T10:26:53.832Z,17.37
2019-05-10T10:29:28.725Z,23.17
2019-05-10T10:31:59.017Z,20.23
2019-05-10T10:34:32.701Z,14.97
2019-05-10T10:37:00.314Z,17.10
2019-05-10T10:39:30.365Z,13.47
2019-05-10T10:42:02.360Z,17.83
2019-05-10T10:44:32.112Z,14.80
2019-05-10T10:47:02.177Z,14.80
2019-05-10T10:49:32.211Z,16.13
2019-05-10T10:52:05.582Z,16.83
2019-05-10T10:54:37.471Z,17.33
2019-05-10T10:57:08.053Z,19.57
2019-05-10T10:59:37.649Z,16.43
2019-05-10T11:02:28.981Z,18.50
2019-05-10T11:04:40.545Z,15.67
2019-05-10T11:07:11.391Z,15.90
2019-05-10T11:09:41.361Z,18.10
2019-05-10T11:12:14.742Z,19.23
2019-05-10T11:14:45.323Z,17.20
2019-05-10T11:17:14.859Z,16.30
2019-05-10T11:19:44.864Z,19.47
2019-05-10T11:22:14.861Z,18.63
2019-05-10T11:24:44.902Z,16.30
2019-05-10T11:27:17.193Z,18.17
2019-05-10T11:29:46.723Z,18.17
2019-05-10T11:32:17.176Z,18.83
2019-05-10T11:34:48.424Z,18.17
2019-05-10T11:37:25.166Z,16.33
2019-05-10T11:39:50.561Z,16.37
2019-05-10T11:42:21.171Z,18.83
2019-05-10T11:44:54.513Z,17.60
2019-05-10T11:47:27.193Z,19.33
2019-05-10T11:49:55.919Z,16.33
2019-05-10T11:52:29.286Z,16.13
2019-05-10T11:54:57.736Z,14.87
2019-05-10T11:57:32.408Z,16.13
2019-05-10T12:00:00.540Z,14.23
2019-05-10T12:02:43.255Z,13.27
2019-05-10T12:05:10.868Z,12.10
2019-05-10T12:07:42.751Z,16.87
2019-05-10T12:10:16.996Z,15.77
2019-05-10T12:12:54.041Z,14.20
2019-05-10T12:15:13.534Z,15.53
2019-05-10T12:17:46.387Z,14.63
2019-05-10T12:20:16.853Z,16.43
2019-05-10T12:22:47.686Z,14.17
2019-05-10T12:25:37.756Z,11.60
2019-05-10T12:27:52.182Z,14.30
2019-05-10T12:30:21.614Z,13.47
2019-05-10T12:32:56.530Z,15.27
2019-05-10T12:35:26.422Z,17.47
2019-05-10T12:37:56.304Z,14.47
2019-05-10T12:40:26.313Z,18.00
2019-05-10T12:42:56.299Z,16.20
2019-05-10T12:45:26.378Z,46.30
2019-05-10T12:47:56.379Z,13.23
2019-05-10T12:50:26.589Z,14.03
2019-05-10T12:53:14.371Z,15.37
2019-05-10T12:55:28.330Z,19.13
2019-05-10T12:57:58.393Z,14.03
2019-05-10T13:00:28.378Z,11.30
2019-05-10T13:03:11.510Z,13.20
2019-05-10T13:19:14.032Z,15.63
2019-05-10T13:21:41.128Z,14.73
2019-05-10T13:24:11.206Z,14.37
2019-05-10T13:26:41.231Z,19.80
2019-05-10T13:29:11.268Z,14.87
2019-05-10T13:31:43.031Z,12.90
2019-05-10T13:34:13.114Z,13.17
2019-05-10T13:36:44.363Z,10.60
2019-05-10T13:39:19.188Z,13.37
2019-05-10T13:41:46.153Z,13.73
2019-05-10T13:44:16.190Z,13.30
2019-05-10T13:46:46.235Z,15.70
2019-05-10T13:49:16.296Z,15.13
2019-05-10T13:51:46.461Z,14.00
2019-05-10T13:54:16.489Z,14.77
2019-05-10T13:56:52.046Z,18.80
2019-05-10T13:59:19.949Z,15.00
2019-05-10T14:01:51.481Z,11.67
2019-05-10T14:04:23.262Z,12.70
2019-05-10T14:06:53.390Z,15.03
2019-05-10T14:09:23.516Z,13.27
2019-05-10T14:11:53.495Z,12.03
2019-05-10T14:14:26.610Z,14.07
2019-05-10T14:16:55.259Z,12.00
2019-05-10T14:19:25.934Z,12.80
2019-05-10T14:21:56.279Z,13.30
2019-05-10T14:24:26.259Z,12.03
2019-05-10T14:26:57.333Z,13.03
2019-05-10T14:29:34.680Z,12.67
2019-05-10T14:31:59.686Z,17.33
2019-05-10T14:34:29.746Z,16.97
2019-05-10T14:36:59.829Z,14.47
2019-05-10T14:39:29.824Z,19.77
2019-05-10T14:41:59.820Z,16.97
2019-05-10T14:44:29.831Z,17.13
2019-05-10T14:46:59.873Z,22.00
2019-05-10T14:49:29.868Z,16.77
2019-05-10T14:51:59.879Z,15.00
2019-05-10T14:54:43.158Z,16.00
2019-05-10T14:57:04.468Z,14.43
2019-05-10T14:59:34.486Z,14.17
2019-05-10T15:02:04.725Z,14.43
2019-05-10T15:04:50.293Z,13.13
2019-05-10T15:07:08.579Z,13.50
2019-05-10T15:09:38.165Z,16.77
2019-05-10T15:12:10.281Z,15.90
2019-05-10T15:14:39.905Z,11.77
2019-05-10T15:17:09.959Z,15.50
2019-05-10T15:19:39.958Z,13.70
2019-05-10T15:22:09.980Z,16.17
2019-05-10T15:24:39.985Z,19.77
2019-05-10T15:27:09.993Z,16.30
2019-05-10T15:29:40.036Z,18.67
2019-05-10T15:32:10.087Z,20.10
2019-05-10T15:34:40.064Z,18.63
2019-05-10T15:37:10.784Z,19.13
2019-05-10T15:39:40.899Z,20.00
2019-05-10T15:42:10.898Z,21.33
2019-05-10T15:44:40.907Z,22.67
2019-05-10T15:47:14.459Z,23.73
2019-05-10T15:49:42.772Z,22.07
2019-05-10T15:52:17.822Z,18.23
2019-05-10T15:54:47.110Z,16.10
2019-05-10T15:57:20.217Z,12.23
2019-05-10T15:59:50.847Z,17.93
2019-05-10T16:02:19.594Z,17.90
2019-05-10T16:04:49.620Z,15.00
2019-05-10T16:07:19.614Z,12.77
2019-05-10T16:09:54.091Z,16.47
2019-05-10T16:12:21.336Z,14.90
2019-05-10T16:14:51.345Z,13.30
2019-05-10T16:17:23.937Z,10.37
2019-05-10T16:19:59.802Z,9.13
2019-05-10T16:22:30.247Z,8.30
2019-05-10T16:25:00.528Z,9.20
2019-05-10T16:27:28.345Z,8.80
2019-05-10T16:29:58.346Z,7.97
2019-05-10T16:32:29.312Z,14.53
2019-05-10T16:35:05.967Z,12.57
2019-05-10T16:37:32.911Z,8.70
2019-05-10T16:40:03.161Z,11.47
2019-05-10T16:42:34.551Z,14.73
2019-05-10T16:45:05.705Z,14.60
2019-05-10T16:47:35.741Z,13.20
2019-05-10T16:50:09.046Z,13.80
2019-05-10T16:52:39.100Z,12.43
2019-05-10T16:55:10.031Z,8.60
2019-05-10T16:57:40.074Z,9.07
2019-05-10T17:00:11.031Z,8.27
2019-05-10T17:02:43.875Z,12.43
2019-05-10T17:05:15.176Z,10.07
2019-05-10T17:07:44.656Z,10.20
2019-05-10T17:10:14.778Z,12.20
2019-05-10T17:12:44.833Z,13.40
2019-05-10T17:15:15.045Z,7.70
2019-05-10T17:17:47.379Z,8.13
2019-05-10T17:20:17.713Z,8.33
2019-05-10T17:22:47.757Z,27.87
2019-05-10T17:25:17.908Z,10.00
2019-05-10T17:27:50.687Z,7.00
2019-05-10T17:30:22.261Z,11.83
2019-05-10T17:32:51.559Z,10.83
2019-05-10T17:35:21.619Z,6.90
2019-05-10T17:37:53.014Z,5.63
2019-05-10T17:40:23.142Z,5.67
2019-05-10T17:42:53.205Z,5.43
2019-05-10T17:45:23.167Z,6.27
2019-05-10T17:47:53.139Z,5.87
2019-05-10T17:50:23.148Z,4.87
2019-05-10T17:52:53.152Z,5.73
2019-05-10T17:55:25.427Z,5.80
2019-05-10T17:57:56.508Z,5.90
2019-05-10T18:00:26.770Z,5.40
2019-05-10T18:02:56.777Z,5.90
2019-05-10T18:05:26.795Z,5.83
2019-05-10T18:07:56.826Z,6.97
2019-05-10T18:10:27.949Z,7.40
2019-05-10T18:13:03.481Z,9.30
2019-05-10T18:15:32.982Z,7.43
2019-05-10T18:18:02.500Z,6.07
2019-05-10T18:20:41.046Z,6.97
2019-05-10T18:23:04.919Z,8.00
2019-05-10T18:25:35.006Z,9.63
2019-05-10T18:28:05.062Z,7.07
2019-05-10T18:30:35.226Z,6.63
2019-05-10T18:33:06.715Z,4.70
2019-05-10T18:35:37.128Z,5.60
2019-05-10T18:38:07.107Z,5.17
2019-05-10T18:40:37.202Z,4.80
2019-05-10T18:43:07.255Z,5.67
2019-05-10T18:45:38.282Z,6.70
2019-05-10T18:48:08.382Z,6.00
2019-05-10T18:50:39.754Z,5.83
2019-05-10T18:53:10.164Z,6.93
2019-05-10T18:55:40.147Z,6.70
2019-05-10T18:58:10.207Z,6.57
2019-05-10T19:00:40.423Z,5.80
2019-05-10T19:03:10.461Z,4.33
2019-05-10T19:05:40.614Z,3.90
2019-05-10T19:08:10.688Z,4.40
2019-05-10T19:10:40.735Z,10.93
2019-05-10T19:13:11.206Z,7.20
2019-05-10T19:15:46.298Z,7.33
2019-05-10T19:18:17.817Z,9.60
2019-05-10T19:20:48.843Z,5.77
2019-05-10T19:23:19.432Z,4.17
2019-05-10T19:25:51.901Z,4.37
2019-05-10T19:28:21.012Z,3.90
2019-05-10T19:30:52.735Z,4.20
2019-05-10T19:33:23.301Z,7.87
2019-05-10T19:35:53.285Z,6.87
2019-05-10T19:38:23.278Z,10.07
2019-05-10T19:40:53.314Z,12.73
2019-05-10T19:43:24.046Z,5.67
2019-05-10T19:45:57.632Z,5.57
2019-05-10T19:48:29.375Z,4.00
2019-05-10T19:51:02.950Z,6.47
2019-05-10T19:53:31.354Z,10.47
2019-05-10T19:56:04.068Z,7.70
2019-05-10T19:58:34.028Z,9.90
2019-05-10T20:01:08.837Z,6.13
2019-05-10T20:03:38.831Z,14.07
2019-05-10T20:06:08.811Z,9.57
2019-05-10T20:08:38.793Z,7.97
2019-05-10T20:11:08.829Z,7.77
2019-05-10T20:13:38.906Z,5.90
2019-05-10T20:16:08.978Z,9.70
2019-05-10T20:18:39.047Z,6.73
2019-05-10T20:21:09.026Z,6.20
2019-05-10T20:23:39.068Z,5.93
2019-05-10T20:28:52.526Z,4.33
2019-05-10T20:31:22.603Z,5.20
2019-05-10T20:33:52.585Z,13.13
2019-05-10T20:36:22.673Z,11.43
2019-05-10T20:38:52.704Z,12.50
2019-05-10T20:41:22.698Z,12.77
2019-05-10T20:43:52.726Z,10.67
2019-05-10T20:46:22.724Z,21.80
2019-05-10T20:48:52.768Z,12.80
2019-05-10T20:51:22.759Z,7.27
2019-05-10T20:53:52.796Z,11.17
2019-05-10T20:56:22.784Z,10.80
2019-05-10T20:58:52.817Z,10.70
2019-05-10T21:01:22.791Z,13.87
2019-05-10T21:03:52.812Z,12.43
2019-05-10T21:06:22.801Z,11.47
2019-05-10T21:08:52.786Z,15.87
2019-05-10T21:11:22.793Z,15.00
2019-05-10T21:13:52.846Z,14.90
2019-05-10T21:16:22.921Z,17.17
2019-05-10T21:18:52.918Z,11.80
2019-05-10T21:21:22.933Z,12.70
2019-05-10T21:23:52.912Z,19.30
2019-05-10T21:26:22.978Z,22.03
2019-05-10T21:28:53.021Z,13.17
2019-05-10T21:31:23.056Z,17.37
2019-05-10T21:34:08.251Z,13.27
2019-05-10T21:36:24.882Z,18.63
2019-05-10T21:38:54.829Z,11.30
2019-05-10T21:41:24.898Z,9.53
2019-05-10T21:43:54.882Z,9.00
2019-05-10T21:46:24.860Z,12.93
2019-05-10T21:48:54.890Z,12.20
2019-05-10T21:51:24.861Z,11.23
2019-05-10T21:53:54.903Z,10.57
2019-05-10T21:56:24.903Z,12.80
2019-05-10T21:58:54.877Z,11.23
2019-05-10T22:01:25.004Z,14.90
2019-05-10T22:03:55.157Z,9.17
2019-05-10T22:06:25.144Z,19.10
2019-05-10T22:08:55.125Z,10.70
2019-05-10T22:11:25.283Z,11.20
2019-05-10T22:13:55.364Z,13.20
2019-05-10T22:16:25.401Z,9.37
2019-05-10T22:19:02.896Z,11.23
2019-05-10T22:21:32.944Z,13.57
2019-05-10T22:24:03.008Z,11.20
2019-05-10T22:26:32.996Z,12.23
2019-05-10T22:29:03.054Z,12.13
2019-05-10T22:31:33.113Z,12.37
2019-05-10T22:34:03.164Z,11.23
2019-05-10T22:36:33.213Z,11.17
2019-05-10T22:39:07.443Z,12.80
2019-05-10T22:41:36.629Z,14.17
2019-05-10T22:44:06.685Z,10.40
2019-05-10T22:46:36.665Z,9.10
2019-05-10T22:49:06.727Z,8.63
2019-05-10T22:51:36.689Z,15.23
2019-05-10T22:54:06.698Z,16.93
2019-05-10T22:56:36.695Z,9.00
2019-05-10T22:59:06.736Z,14.33
2019-05-10T23:01:36.805Z,10.73
2019-05-10T23:04:06.810Z,12.60
2019-05-10T23:06:36.855Z,7.07
2019-05-10T23:09:23.607Z,9.63
2019-05-10T23:11:39.909Z,8.77
2019-05-10T23:14:09.940Z,6.57
2019-05-10T23:16:39.986Z,7.93
2019-05-10T23:19:10.012Z,7.57
2019-05-10T23:21:39.985Z,8.03
2019-05-10T23:24:11.614Z,12.13
2019-05-10T23:26:41.607Z,11.77
2019-05-10T23:29:11.597Z,10.80
2019-05-10T23:31:41.582Z,8.90
2019-05-10T23:34:11.563Z,10.23
2019-05-10T23:36:41.648Z,11.23
2019-05-10T23:39:11.700Z,9.43
2019-05-10T23:41:41.720Z,7.37
2019-05-10T23:44:11.769Z,8.47
2019-05-10T23:46:41.749Z,8.57
2019-05-10T23:49:11.779Z,7.47
2019-05-10T23:51:41.761Z,13.73
2019-05-10T23:54:11.842Z,12.20
2019-05-10T23:56:41.840Z,9.70
2019-05-10T23:59:11.841Z,10.60
